sensor_id;sensor_type;location;lat;lon;timestamp;temperature;humidity
78366;HTU21D;67641;59.864;30.464;2024-01-15T00:00:56;12.28;74.00
78366;HTU21D;67641;59.864;30.464;2024-01-15T00:03:22;12.21;74.00
78366;HTU21D;67641;59.864;30.464;2024-01-15T00:05:48;12.21;73.96
78366;HTU21D;67641;59.864;30.464;2024-01-15T00:08:14;12.26;74.02
78366;HTU21D;67641;59.864;30.464;2024-01-15T00:10:40;12.29;74.13
78366;HTU21D;67641;59.864;30.464;2024-01-15T00:13:07;12.33;74.51
78366;HTU21D;67641;59.864;30.464;2024-01-15T00:15:33;12.36;74.09
78366;HTU21D;67641;59.864;30.464;2024-01-15T00:17:59;12.36;73.80
78366;HTU21D;67641;59.864;30.464;2024-01-15T00:20:25;12.38;74.57
78366;HTU21D;67641;59.864;30.464;2024-01-15T00:22:51;12.42;74.28
78366;HTU21D;67641;59.864;30.464;2024-01-15T00:25:17;12.45;74.22
78366;HTU21D;67641;59.864;30.464;2024-01-15T00:27:43;12.46;74.92
78366;HTU21D;67641;59.864;30.464;2024-01-15T00:30:10;12.47;74.80
78366;HTU21D;67641;59.864;30.464;2024-01-15T00:32:36;12.46;75.12
78366;HTU21D;67641;59.864;30.464;2024-01-15T00:35:03;12.46;75.11
78366;HTU21D;67641;59.864;30.464;2024-01-15T00:37:29;12.44;74.33
78366;HTU21D;67641;59.864;30.464;2024-01-15T00:39:55;12.43;74.36
78366;HTU21D;67641;59.864;30.464;2024-01-15T00:42:21;12.41;74.06
78366;HTU21D;67641;59.864;30.464;2024-01-15T00:44:47;12.41;74.21
78366;HTU21D;67641;59.864;30.464;2024-01-15T00:47:14;12.40;74.11
78366;HTU21D;67641;59.864;30.464;2024-01-15T00:49:40;12.35;74.23
78366;HTU21D;67641;59.864;30.464;2024-01-15T00:52:06;12.33;74.31
78366;HTU21D;67641;59.864;30.464;2024-01-15T00:54:32;12.30;74.60
78366;HTU21D;67641;59.864;30.464;2024-01-15T00:56:58;12.26;74.79
78366;HTU21D;67641;59.864;30.464;2024-01-15T00:59:24;12.26;74.90
78366;HTU21D;67641;59.864;30.464;2024-01-15T01:01:50;12.25;74.75
78366;HTU21D;67641;59.864;30.464;2024-01-15T01:04:16;12.23;74.79
78366;HTU21D;67641;59.864;30.464;2024-01-15T01:06:42;12.21;74.69
78366;HTU21D;67641;59.864;30.464;2024-01-15T01:09:08;12.22;74.73
78366;HTU21D;67641;59.864;30.464;2024-01-15T01:11:34;12.22;74.57
78366;HTU21D;67641;59.864;30.464;2024-01-15T01:14:00;12.27;74.33
78366;HTU21D;67641;59.864;30.464;2024-01-15T01:16:27;12.29;74.46
78366;HTU21D;67641;59.864;30.464;2024-01-15T01:18:53;12.29;74.49
78366;HTU21D;67641;59.864;30.464;2024-01-15T01:21:19;12.31;74.42
78366;HTU21D;67641;59.864;30.464;2024-01-15T01:23:45;12.31;73.99
78366;HTU21D;67641;59.864;30.464;2024-01-15T01:26:15;12.31;73.99
78366;HTU21D;67641;59.864;30.464;2024-01-15T01:28:42;12.31;73.83
78366;HTU21D;67641;59.864;30.464;2024-01-15T01:31:08;12.32;73.87
78366;HTU21D;67641;59.864;30.464;2024-01-15T01:33:34;12.30;73.81
78366;HTU21D;67641;59.864;30.464;2024-01-15T01:36:01;12.31;73.91
78366;HTU21D;67641;59.864;30.464;2024-01-15T01:38:33;12.29;74.14
78366;HTU21D;67641;59.864;30.464;2024-01-15T01:40:59;12.28;73.97
78366;HTU21D;67641;59.864;30.464;2024-01-15T01:43:26;12.28;73.83
78366;HTU21D;67641;59.864;30.464;2024-01-15T01:45:55;12.25;73.93
78366;HTU21D;67641;59.864;30.464;2024-01-15T01:48:24;12.23;73.88
78366;HTU21D;67641;59.864;30.464;2024-01-15T01:50:57;12.22;73.94
78366;HTU21D;67641;59.864;30.464;2024-01-15T01:53:26;12.21;74.12
78366;HTU21D;67641;59.864;30.464;2024-01-15T01:55:53;12.19;74.18
78366;HTU21D;67641;59.864;30.464;2024-01-15T01:58:20;12.17;74.12
78366;HTU21D;67641;59.864;30.464;2024-01-15T02:00:47;12.15;74.23
78366;HTU21D;67641;59.864;30.464;2024-01-15T02:03:14;12.14;74.10
78366;HTU21D;67641;59.864;30.464;2024-01-15T02:05:42;12.11;74.09
78366;HTU21D;67641;59.864;30.464;2024-01-15T02:08:10;12.11;74.07
78366;HTU21D;67641;59.864;30.464;2024-01-15T02:10:37;12.11;74.16
78366;HTU21D;67641;59.864;30.464;2024-01-15T02:13:04;12.10;74.23
78366;HTU21D;67641;59.864;30.464;2024-01-15T02:15:30;12.08;74.16
78366;HTU21D;67641;59.864;30.464;2024-01-15T02:17:57;12.08;74.15
78366;HTU21D;67641;59.864;30.464;2024-01-15T02:20:25;12.05;74.38
78366;HTU21D;67641;59.864;30.464;2024-01-15T02:22:52;12.04;74.36
78366;HTU21D;67641;59.864;30.464;2024-01-15T02:25:19;12.03;74.58
78366;HTU21D;67641;59.864;30.464;2024-01-15T02:27:46;12.01;74.63
78366;HTU21D;67641;59.864;30.464;2024-01-15T02:30:12;11.98;74.71
78366;HTU21D;67641;59.864;30.464;2024-01-15T02:32:39;11.97;74.07
78366;HTU21D;67641;59.864;30.464;2024-01-15T02:35:06;11.94;74.07
78366;HTU21D;67641;59.864;30.464;2024-01-15T02:37:32;11.91;74.11
78366;HTU21D;67641;59.864;30.464;2024-01-15T02:39:59;11.90;74.12
78366;HTU21D;67641;59.864;30.464;2024-01-15T02:42:26;11.91;73.89
78366;HTU21D;67641;59.864;30.464;2024-01-15T02:44:52;11.90;73.44
78366;HTU21D;67641;59.864;30.464;2024-01-15T02:47:18;11.87;73.20
78366;HTU21D;67641;59.864;30.464;2024-01-15T02:49:44;11.88;73.09
78366;HTU21D;67641;59.864;30.464;2024-01-15T02:52:10;11.88;72.86
78366;HTU21D;67641;59.864;30.464;2024-01-15T02:54:36;11.85;73.10
78366;HTU21D;67641;59.864;30.464;2024-01-15T02:57:02;11.83;73.03
78366;HTU21D;67641;59.864;30.464;2024-01-15T02:59:29;11.79;73.16
78366;HTU21D;67641;59.864;30.464;2024-01-15T03:01:55;11.76;73.32
78366;HTU21D;67641;59.864;30.464;2024-01-15T03:04:21;11.75;73.16
78366;HTU21D;67641;59.864;30.464;2024-01-15T03:06:47;11.73;73.19
78366;HTU21D;67641;59.864;30.464;2024-01-15T03:09:13;11.73;73.08
78366;HTU21D;67641;59.864;30.464;2024-01-15T03:11:39;11.74;72.98
78366;HTU21D;67641;59.864;30.464;2024-01-15T03:14:06;11.74;72.78
78366;HTU21D;67641;59.864;30.464;2024-01-15T03:16:32;11.74;72.70
78366;HTU21D;67641;59.864;30.464;2024-01-15T03:18:58;11.76;72.63
78366;HTU21D;67641;59.864;30.464;2024-01-15T03:21:24;11.77;72.54
78366;HTU21D;67641;59.864;30.464;2024-01-15T03:23:50;11.79;72.20
78366;HTU21D;67641;59.864;30.464;2024-01-15T03:26:16;11.79;72.05
78366;HTU21D;67641;59.864;30.464;2024-01-15T03:28:42;11.83;71.86
78366;HTU21D;67641;59.864;30.464;2024-01-15T03:31:08;11.84;71.78
78366;HTU21D;67641;59.864;30.464;2024-01-15T03:33:34;11.85;71.86
78366;HTU21D;67641;59.864;30.464;2024-01-15T03:36:01;11.84;71.90
78366;HTU21D;67641;59.864;30.464;2024-01-15T03:38:28;11.85;71.71
78366;HTU21D;67641;59.864;30.464;2024-01-15T03:40:55;11.84;71.77
78366;HTU21D;67641;59.864;30.464;2024-01-15T03:43:22;11.84;71.84
78366;HTU21D;67641;59.864;30.464;2024-01-15T03:45:49;11.88;71.81
78366;HTU21D;67641;59.864;30.464;2024-01-15T03:48:15;11.88;72.00
78366;HTU21D;67641;59.864;30.464;2024-01-15T03:50:41;11.88;72.02
78366;HTU21D;67641;59.864;30.464;2024-01-15T03:53:08;11.90;72.00
78366;HTU21D;67641;59.864;30.464;2024-01-15T03:55:34;11.89;72.03
78366;HTU21D;67641;59.864;30.464;2024-01-15T03:58:01;11.91;72.13
78366;HTU21D;67641;59.864;30.464;2024-01-15T04:00:27;11.91;72.16
78366;HTU21D;67641;59.864;30.464;2024-01-15T04:02:54;11.92;72.22
78366;HTU21D;67641;59.864;30.464;2024-01-15T04:05:21;11.90;72.30
78366;HTU21D;67641;59.864;30.464;2024-01-15T04:07:47;11.89;72.41
78366;HTU21D;67641;59.864;30.464;2024-01-15T04:10:14;11.90;72.38
78366;HTU21D;67641;59.864;30.464;2024-01-15T04:12:40;11.91;72.38
78366;HTU21D;67641;59.864;30.464;2024-01-15T04:15:07;11.92;72.68
78366;HTU21D;67641;59.864;30.464;2024-01-15T04:17:34;11.90;72.70
78366;HTU21D;67641;59.864;30.464;2024-01-15T04:20:00;11.90;72.93
78366;HTU21D;67641;59.864;30.464;2024-01-15T04:22:27;11.88;73.32
78366;HTU21D;67641;59.864;30.464;2024-01-15T04:24:53;11.84;73.41
78366;HTU21D;67641;59.864;30.464;2024-01-15T04:27:20;11.82;73.30
78366;HTU21D;67641;59.864;30.464;2024-01-15T04:29:46;11.77;73.49
78366;HTU21D;67641;59.864;30.464;2024-01-15T04:32:13;11.72;73.54
78366;HTU21D;67641;59.864;30.464;2024-01-15T04:34:39;11.73;73.62
78366;HTU21D;67641;59.864;30.464;2024-01-15T04:37:06;11.69;73.64
78366;HTU21D;67641;59.864;30.464;2024-01-15T04:39:32;11.67;73.28
78366;HTU21D;67641;59.864;30.464;2024-01-15T04:41:59;11.68;73.14
78366;HTU21D;67641;59.864;30.464;2024-01-15T04:44:25;11.68;73.13
78366;HTU21D;67641;59.864;30.464;2024-01-15T04:46:52;11.68;73.19
78366;HTU21D;67641;59.864;30.464;2024-01-15T04:49:18;11.68;73.19
78366;HTU21D;67641;59.864;30.464;2024-01-15T04:51:45;11.66;73.27
78366;HTU21D;67641;59.864;30.464;2024-01-15T04:54:11;11.64;73.12
78366;HTU21D;67641;59.864;30.464;2024-01-15T04:56:38;11.67;73.07
78366;HTU21D;67641;59.864;30.464;2024-01-15T04:59:04;11.67;73.25
78366;HTU21D;67641;59.864;30.464;2024-01-15T05:01:32;11.66;73.05
78366;HTU21D;67641;59.864;30.464;2024-01-15T05:03:59;11.66;72.80
78366;HTU21D;67641;59.864;30.464;2024-01-15T05:06:25;11.64;72.75
78366;HTU21D;67641;59.864;30.464;2024-01-15T05:08:52;11.66;72.70
78366;HTU21D;67641;59.864;30.464;2024-01-15T05:11:18;11.67;72.66
78366;HTU21D;67641;59.864;30.464;2024-01-15T05:13:45;11.68;72.46
78366;HTU21D;67641;59.864;30.464;2024-01-15T05:16:11;11.70;72.27
78366;HTU21D;67641;59.864;30.464;2024-01-15T05:18:37;11.74;72.09
78366;HTU21D;67641;59.864;30.464;2024-01-15T05:21:04;11.76;72.04
78366;HTU21D;67641;59.864;30.464;2024-01-15T05:23:34;11.82;71.52
78366;HTU21D;67641;59.864;30.464;2024-01-15T05:26:00;11.86;71.20
78366;HTU21D;67641;59.864;30.464;2024-01-15T05:28:26;11.93;70.47
78366;HTU21D;67641;59.864;30.464;2024-01-15T05:30:53;12.01;70.00
78366;HTU21D;67641;59.864;30.464;2024-01-15T05:33:24;12.15;68.49
78366;HTU21D;67641;59.864;30.464;2024-01-15T05:35:51;12.26;68.51
78366;HTU21D;67641;59.864;30.464;2024-01-15T05:38:17;12.35;68.86
78366;HTU21D;67641;59.864;30.464;2024-01-15T05:40:44;12.48;67.34
78366;HTU21D;67641;59.864;30.464;2024-01-15T05:43:10;12.70;65.60
78366;HTU21D;67641;59.864;30.464;2024-01-15T05:45:38;13.04;64.58
78366;HTU21D;67641;59.864;30.464;2024-01-15T05:48:05;13.58;63.14
78366;HTU21D;67641;59.864;30.464;2024-01-15T05:50:32;14.29;60.70
78366;HTU21D;67641;59.864;30.464;2024-01-15T05:52:59;14.95;58.78
78366;HTU21D;67641;59.864;30.464;2024-01-15T05:55:25;15.62;56.91
78366;HTU21D;67641;59.864;30.464;2024-01-15T05:57:52;16.26;55.02
78366;HTU21D;67641;59.864;30.464;2024-01-15T06:00:19;16.74;53.40
78366;HTU21D;67641;59.864;30.464;2024-01-15T06:02:46;17.17;52.62
78366;HTU21D;67641;59.864;30.464;2024-01-15T06:05:12;17.56;51.60
78366;HTU21D;67641;59.864;30.464;2024-01-15T06:07:39;17.97;50.55
78366;HTU21D;67641;59.864;30.464;2024-01-15T06:10:06;18.32;49.76
78366;HTU21D;67641;59.864;30.464;2024-01-15T06:12:33;18.70;48.30
78366;HTU21D;67641;59.864;30.464;2024-01-15T06:15:00;19.11;47.37
78366;HTU21D;67641;59.864;30.464;2024-01-15T06:17:26;19.38;46.67
78366;HTU21D;67641;59.864;30.464;2024-01-15T06:19:53;19.70;45.99
78366;HTU21D;67641;59.864;30.464;2024-01-15T06:22:19;20.36;44.39
78366;HTU21D;67641;59.864;30.464;2024-01-15T06:24:46;20.81;43.72
78366;HTU21D;67641;59.864;30.464;2024-01-15T06:27:13;21.27;42.79
78366;HTU21D;67641;59.864;30.464;2024-01-15T06:29:45;21.66;41.33
78366;HTU21D;67641;59.864;30.464;2024-01-15T06:32:15;21.94;40.97
78366;HTU21D;67641;59.864;30.464;2024-01-15T06:34:41;22.43;39.76
78366;HTU21D;67641;59.864;30.464;2024-01-15T06:37:08;22.57;39.03
78366;HTU21D;67641;59.864;30.464;2024-01-15T06:39:34;22.95;38.46
78366;HTU21D;67641;59.864;30.464;2024-01-15T06:42:00;23.03;38.10
78366;HTU21D;67641;59.864;30.464;2024-01-15T06:44:26;23.14;37.57
78366;HTU21D;67641;59.864;30.464;2024-01-15T06:46:52;23.20;37.20
78366;HTU21D;67641;59.864;30.464;2024-01-15T06:49:23;23.30;36.91
78366;HTU21D;67641;59.864;30.464;2024-01-15T06:51:49;23.36;36.92
78366;HTU21D;67641;59.864;30.464;2024-01-15T06:54:15;23.74;36.56
78366;HTU21D;67641;59.864;30.464;2024-01-15T06:56:41;24.12;35.95
78366;HTU21D;67641;59.864;30.464;2024-01-15T06:59:07;24.55;35.12
78366;HTU21D;67641;59.864;30.464;2024-01-15T07:01:34;24.93;34.61
78366;HTU21D;67641;59.864;30.464;2024-01-15T07:04:00;25.09;34.21
78366;HTU21D;67641;59.864;30.464;2024-01-15T07:06:26;25.34;33.94
78366;HTU21D;67641;59.864;30.464;2024-01-15T07:08:52;25.35;33.77
78366;HTU21D;67641;59.864;30.464;2024-01-15T07:11:18;25.33;33.93
78366;HTU21D;67641;59.864;30.464;2024-01-15T07:13:45;25.21;33.67
78366;HTU21D;67641;59.864;30.464;2024-01-15T07:16:11;25.42;33.67
78366;HTU21D;67641;59.864;30.464;2024-01-15T07:18:37;25.83;33.19
78366;HTU21D;67641;59.864;30.464;2024-01-15T07:21:04;25.98;32.74
78366;HTU21D;67641;59.864;30.464;2024-01-15T07:23:31;25.81;32.73
78366;HTU21D;67641;59.864;30.464;2024-01-15T07:25:57;25.74;33.01
78366;HTU21D;67641;59.864;30.464;2024-01-15T07:28:23;25.69;33.47
78366;HTU21D;67641;59.864;30.464;2024-01-15T07:30:50;26.20;32.46
78366;HTU21D;67641;59.864;30.464;2024-01-15T07:33:16;26.18;32.28
78366;HTU21D;67641;59.864;30.464;2024-01-15T07:35:42;26.39;31.73
78366;HTU21D;67641;59.864;30.464;2024-01-15T07:38:09;26.37;31.54
78366;HTU21D;67641;59.864;30.464;2024-01-15T07:40:37;26.11;31.92
78366;HTU21D;67641;59.864;30.464;2024-01-15T07:43:04;26.31;31.75
78366;HTU21D;67641;59.864;30.464;2024-01-15T07:45:31;26.63;30.90
78366;HTU21D;67641;59.864;30.464;2024-01-15T07:47:57;26.13;32.22
78366;HTU21D;67641;59.864;30.464;2024-01-15T07:50:24;26.07;32.61
78366;HTU21D;67641;59.864;30.464;2024-01-15T07:52:51;25.40;33.75
78366;HTU21D;67641;59.864;30.464;2024-01-15T07:55:19;24.86;34.96
78366;HTU21D;67641;59.864;30.464;2024-01-15T07:57:46;23.90;36.69
78366;HTU21D;67641;59.864;30.464;2024-01-15T08:00:12;23.54;37.47
78366;HTU21D;67641;59.864;30.464;2024-01-15T08:02:39;23.49;38.10
78366;HTU21D;67641;59.864;30.464;2024-01-15T08:05:06;23.94;37.33
78366;HTU21D;67641;59.864;30.464;2024-01-15T08:07:33;24.01;37.28
78366;HTU21D;67641;59.864;30.464;2024-01-15T08:09:59;24.20;36.86
78366;HTU21D;67641;59.864;30.464;2024-01-15T08:12:26;24.33;36.88
78366;HTU21D;67641;59.864;30.464;2024-01-15T08:14:53;24.47;36.53
78366;HTU21D;67641;59.864;30.464;2024-01-15T08:17:20;24.84;35.79
78366;HTU21D;67641;59.864;30.464;2024-01-15T08:19:47;24.70;35.76
78366;HTU21D;67641;59.864;30.464;2024-01-15T08:22:13;23.67;37.98
78366;HTU21D;67641;59.864;30.464;2024-01-15T08:24:40;23.13;39.14
78366;HTU21D;67641;59.864;30.464;2024-01-15T08:27:07;23.09;38.79
78366;HTU21D;67641;59.864;30.464;2024-01-15T08:29:33;23.10;38.90
78366;HTU21D;67641;59.864;30.464;2024-01-15T08:32:01;23.35;38.36
78366;HTU21D;67641;59.864;30.464;2024-01-15T08:34:27;23.57;38.26
78366;HTU21D;67641;59.864;30.464;2024-01-15T08:36:54;23.60;38.08
78366;HTU21D;67641;59.864;30.464;2024-01-15T08:39:20;23.53;38.59
78366;HTU21D;67641;59.864;30.464;2024-01-15T08:41:46;23.43;38.32
78366;HTU21D;67641;59.864;30.464;2024-01-15T08:44:13;23.18;39.39
78366;HTU21D;67641;59.864;30.464;2024-01-15T08:46:39;23.20;39.52
78366;HTU21D;67641;59.864;30.464;2024-01-15T08:49:05;22.91;40.19
78366;HTU21D;67641;59.864;30.464;2024-01-15T08:51:31;22.75;40.26
78366;HTU21D;67641;59.864;30.464;2024-01-15T08:53:58;22.80;40.71
78366;HTU21D;67641;59.864;30.464;2024-01-15T08:56:24;22.70;40.84
78366;HTU21D;67641;59.864;30.464;2024-01-15T08:58:50;22.32;40.77
78366;HTU21D;67641;59.864;30.464;2024-01-15T09:01:16;22.19;40.94
78366;HTU21D;67641;59.864;30.464;2024-01-15T09:03:42;22.07;41.47
78366;HTU21D;67641;59.864;30.464;2024-01-15T09:06:08;22.43;41.01
78366;HTU21D;67641;59.864;30.464;2024-01-15T09:08:35;22.25;41.30
78366;HTU21D;67641;59.864;30.464;2024-01-15T09:11:02;21.85;41.52
78366;HTU21D;67641;59.864;30.464;2024-01-15T09:13:29;22.28;41.16
78366;HTU21D;67641;59.864;30.464;2024-01-15T09:15:56;22.72;40.30
78366;HTU21D;67641;59.864;30.464;2024-01-15T09:18:22;23.10;38.87
78366;HTU21D;67641;59.864;30.464;2024-01-15T09:20:48;22.84;38.56
78366;HTU21D;67641;59.864;30.464;2024-01-15T09:23:15;22.67;39.32
78366;HTU21D;67641;59.864;30.464;2024-01-15T09:25:41;23.00;38.69
78366;HTU21D;67641;59.864;30.464;2024-01-15T09:28:07;23.34;38.04
78366;HTU21D;67641;59.864;30.464;2024-01-15T09:30:33;23.85;36.92
78366;HTU21D;67641;59.864;30.464;2024-01-15T09:33:00;24.11;36.24
78366;HTU21D;67641;59.864;30.464;2024-01-15T09:35:26;24.46;35.24
78366;HTU21D;67641;59.864;30.464;2024-01-15T09:37:52;24.39;34.63
78366;HTU21D;67641;59.864;30.464;2024-01-15T09:40:20;24.98;34.18
78366;HTU21D;67641;59.864;30.464;2024-01-15T09:42:47;25.96;32.98
78366;HTU21D;67641;59.864;30.464;2024-01-15T09:45:13;26.30;31.65
78366;HTU21D;67641;59.864;30.464;2024-01-15T09:47:40;26.40;31.65
78366;HTU21D;67641;59.864;30.464;2024-01-15T09:50:08;26.84;30.98
78366;HTU21D;67641;59.864;30.464;2024-01-15T09:52:35;26.51;31.68
78366;HTU21D;67641;59.864;30.464;2024-01-15T09:55:03;26.13;33.12
78366;HTU21D;67641;59.864;30.464;2024-01-15T09:57:31;25.51;34.92
78366;HTU21D;67641;59.864;30.464;2024-01-15T09:59:59;24.95;36.30
78366;HTU21D;67641;59.864;30.464;2024-01-15T10:02:30;24.85;36.82
78366;HTU21D;67641;59.864;30.464;2024-01-15T10:04:57;24.71;37.16
78366;HTU21D;67641;59.864;30.464;2024-01-15T10:07:23;24.71;37.79
78366;HTU21D;67641;59.864;30.464;2024-01-15T10:09:51;24.61;38.15
78366;HTU21D;67641;59.864;30.464;2024-01-15T10:12:17;24.29;38.27
78366;HTU21D;67641;59.864;30.464;2024-01-15T10:14:43;23.89;40.08
78366;HTU21D;67641;59.864;30.464;2024-01-15T10:17:13;23.68;40.76
78366;HTU21D;67641;59.864;30.464;2024-01-15T10:19:45;23.59;41.41
78366;HTU21D;67641;59.864;30.464;2024-01-15T10:22:11;23.81;40.64
78366;HTU21D;67641;59.864;30.464;2024-01-15T10:24:37;23.51;40.70
78366;HTU21D;67641;59.864;30.464;2024-01-15T10:27:09;23.44;40.78
78366;HTU21D;67641;59.864;30.464;2024-01-15T10:29:36;23.23;40.82
78366;HTU21D;67641;59.864;30.464;2024-01-15T10:32:05;23.13;41.49
78366;HTU21D;67641;59.864;30.464;2024-01-15T10:34:32;23.32;41.05
78366;HTU21D;67641;59.864;30.464;2024-01-15T10:36:59;23.89;39.77
78366;HTU21D;67641;59.864;30.464;2024-01-15T10:39:28;25.00;37.14
78366;HTU21D;67641;59.864;30.464;2024-01-15T10:41:55;25.67;35.97
78366;HTU21D;67641;59.864;30.464;2024-01-15T10:44:21;25.76;34.62
78366;HTU21D;67641;59.864;30.464;2024-01-15T10:46:48;25.56;34.26
78366;HTU21D;67641;59.864;30.464;2024-01-15T10:49:14;26.45;32.49
78366;HTU21D;67641;59.864;30.464;2024-01-15T10:51:41;26.87;31.23
78366;HTU21D;67641;59.864;30.464;2024-01-15T10:54:09;26.65;32.09
78366;HTU21D;67641;59.864;30.464;2024-01-15T10:56:37;26.96;32.32
78366;HTU21D;67641;59.864;30.464;2024-01-15T10:59:03;27.61;30.39
78366;HTU21D;67641;59.864;30.464;2024-01-15T11:01:30;26.97;31.13
78366;HTU21D;67641;59.864;30.464;2024-01-15T11:03:57;26.90;30.19
78366;HTU21D;67641;59.864;30.464;2024-01-15T11:06:24;26.50;30.15
78366;HTU21D;67641;59.864;30.464;2024-01-15T11:08:52;26.57;29.55
78366;HTU21D;67641;59.864;30.464;2024-01-15T11:11:18;26.08;30.71
78366;HTU21D;67641;59.864;30.464;2024-01-15T11:13:47;26.05;31.01
78366;HTU21D;67641;59.864;30.464;2024-01-15T11:16:16;26.03;31.38
78366;HTU21D;67641;59.864;30.464;2024-01-15T11:19:01;25.56;32.55
78366;HTU21D;67641;59.864;30.464;2024-01-15T11:21:28;25.36;32.75
78366;HTU21D;67641;59.864;30.464;2024-01-15T11:24:00;25.89;31.80
78366;HTU21D;67641;59.864;30.464;2024-01-15T11:26:46;26.16;31.90
78366;HTU21D;67641;59.864;30.464;2024-01-15T11:32:08;25.82;32.27
78366;HTU21D;67641;59.864;30.464;2024-01-15T11:34:57;26.19;31.93
78366;HTU21D;67641;59.864;30.464;2024-01-15T11:37:26;26.34;31.80
78366;HTU21D;67641;59.864;30.464;2024-01-15T11:39:54;26.01;31.68
78366;HTU21D;67641;59.864;30.464;2024-01-15T11:42:21;25.30;32.45
78366;HTU21D;67641;59.864;30.464;2024-01-15T11:44:48;25.05;32.16
78366;HTU21D;67641;59.864;30.464;2024-01-15T11:47:14;24.98;32.16
78366;HTU21D;67641;59.864;30.464;2024-01-15T11:50:00;24.45;33.12
78366;HTU21D;67641;59.864;30.464;2024-01-15T11:52:35;24.34;33.87
78366;HTU21D;67641;59.864;30.464;2024-01-15T11:55:26;24.63;31.80
78366;HTU21D;67641;59.864;30.464;2024-01-15T11:57:54;25.37;30.37
78366;HTU21D;67641;59.864;30.464;2024-01-15T12:00:21;25.91;30.14
78366;HTU21D;67641;59.864;30.464;2024-01-15T12:02:49;25.71;30.10
78366;HTU21D;67641;59.864;30.464;2024-01-15T12:05:17;26.24;29.48
78366;HTU21D;67641;59.864;30.464;2024-01-15T12:07:45;26.28;27.97
78366;HTU21D;67641;59.864;30.464;2024-01-15T12:10:13;26.62;28.13
78366;HTU21D;67641;59.864;30.464;2024-01-15T12:12:45;27.09;28.04
78366;HTU21D;67641;59.864;30.464;2024-01-15T12:15:14;27.32;27.62
78366;HTU21D;67641;59.864;30.464;2024-01-15T12:17:40;27.39;28.16
78366;HTU21D;67641;59.864;30.464;2024-01-15T12:20:07;27.30;27.90
78366;HTU21D;67641;59.864;30.464;2024-01-15T12:22:33;26.73;28.11
78366;HTU21D;67641;59.864;30.464;2024-01-15T12:25:00;25.96;30.11
78366;HTU21D;67641;59.864;30.464;2024-01-15T12:27:26;25.94;30.42
78366;HTU21D;67641;59.864;30.464;2024-01-15T12:29:55;26.21;30.24
78366;HTU21D;67641;59.864;30.464;2024-01-15T12:32:21;25.94;30.94
78366;HTU21D;67641;59.864;30.464;2024-01-15T12:34:49;25.50;31.84
78366;HTU21D;67641;59.864;30.464;2024-01-15T12:37:19;25.47;31.92
78366;HTU21D;67641;59.864;30.464;2024-01-15T12:39:46;26.01;30.64
78366;HTU21D;67641;59.864;30.464;2024-01-15T12:42:17;26.21;30.60
78366;HTU21D;67641;59.864;30.464;2024-01-15T12:44:46;26.09;31.06
78366;HTU21D;67641;59.864;30.464;2024-01-15T12:47:14;25.17;32.95
78366;HTU21D;67641;59.864;30.464;2024-01-15T12:49:46;25.20;33.55
78366;HTU21D;67641;59.864;30.464;2024-01-15T12:52:15;25.74;32.65
78366;HTU21D;67641;59.864;30.464;2024-01-15T12:54:42;25.45;33.07
78366;HTU21D;67641;59.864;30.464;2024-01-15T12:57:09;25.14;33.79
78366;HTU21D;67641;59.864;30.464;2024-01-15T12:59:36;24.14;35.64
78366;HTU21D;67641;59.864;30.464;2024-01-15T13:02:03;23.13;37.94
78366;HTU21D;67641;59.864;30.464;2024-01-15T13:04:30;22.84;38.56
78366;HTU21D;67641;59.864;30.464;2024-01-15T13:06:57;22.13;40.67
78366;HTU21D;67641;59.864;30.464;2024-01-15T13:09:23;21.81;40.92
78366;HTU21D;67641;59.864;30.464;2024-01-15T13:11:50;21.51;42.09
78366;HTU21D;67641;59.864;30.464;2024-01-15T13:14:18;21.18;42.85
78366;HTU21D;67641;59.864;30.464;2024-01-15T13:16:45;20.80;43.41
78366;HTU21D;67641;59.864;30.464;2024-01-15T13:19:11;20.50;45.49
78366;HTU21D;67641;59.864;30.464;2024-01-15T13:21:40;20.27;46.26
78366;HTU21D;67641;59.864;30.464;2024-01-15T13:24:07;20.17;47.17
78366;HTU21D;67641;59.864;30.464;2024-01-15T13:26:34;20.16;47.03
78366;HTU21D;67641;59.864;30.464;2024-01-15T13:29:01;20.07;47.65
78366;HTU21D;67641;59.864;30.464;2024-01-15T13:31:28;20.07;47.76
78366;HTU21D;67641;59.864;30.464;2024-01-15T13:33:55;19.91;47.91
78366;HTU21D;67641;59.864;30.464;2024-01-15T13:36:25;19.70;48.47
78366;HTU21D;67641;59.864;30.464;2024-01-15T13:38:51;19.73;47.99
78366;HTU21D;67641;59.864;30.464;2024-01-15T13:41:19;19.67;48.28
78366;HTU21D;67641;59.864;30.464;2024-01-15T13:43:51;19.65;48.72
78366;HTU21D;67641;59.864;30.464;2024-01-15T13:46:24;19.71;48.79
78366;HTU21D;67641;59.864;30.464;2024-01-15T13:48:52;19.48;49.30
78366;HTU21D;67641;59.864;30.464;2024-01-15T13:51:23;19.52;49.66
78366;HTU21D;67641;59.864;30.464;2024-01-15T13:53:49;19.37;49.95
78366;HTU21D;67641;59.864;30.464;2024-01-15T13:56:16;19.20;50.41
78366;HTU21D;67641;59.864;30.464;2024-01-15T13:58:42;19.11;50.82
78366;HTU21D;67641;59.864;30.464;2024-01-15T14:01:09;19.11;51.09
78366;HTU21D;67641;59.864;30.464;2024-01-15T14:03:36;19.15;51.21
78366;HTU21D;67641;59.864;30.464;2024-01-15T14:06:02;19.03;51.36
78366;HTU21D;67641;59.864;30.464;2024-01-15T14:08:30;18.85;52.36
78366;HTU21D;67641;59.864;30.464;2024-01-15T14:11:02;18.91;52.75
78366;HTU21D;67641;59.864;30.464;2024-01-15T14:13:28;18.92;52.32
78366;HTU21D;67641;59.864;30.464;2024-01-15T14:15:54;18.96;53.06
78366;HTU21D;67641;59.864;30.464;2024-01-15T14:18:21;18.96;53.12
78366;HTU21D;67641;59.864;30.464;2024-01-15T14:20:47;18.86;52.85
78366;HTU21D;67641;59.864;30.464;2024-01-15T14:23:14;18.81;52.77
78366;HTU21D;67641;59.864;30.464;2024-01-15T14:25:40;18.78;53.14
78366;HTU21D;67641;59.864;30.464;2024-01-15T14:28:06;18.79;53.25
78366;HTU21D;67641;59.864;30.464;2024-01-15T14:30:32;18.71;53.43
78366;HTU21D;67641;59.864;30.464;2024-01-15T14:32:58;18.69;53.68
78366;HTU21D;67641;59.864;30.464;2024-01-15T14:35:25;18.76;53.50
78366;HTU21D;67641;59.864;30.464;2024-01-15T14:37:52;18.72;53.70
78366;HTU21D;67641;59.864;30.464;2024-01-15T14:40:18;18.63;54.26
78366;HTU21D;67641;59.864;30.464;2024-01-15T14:42:45;18.64;53.68
78366;HTU21D;67641;59.864;30.464;2024-01-15T14:45:12;18.51;54.13
78366;HTU21D;67641;59.864;30.464;2024-01-15T14:47:39;18.49;54.56
78366;HTU21D;67641;59.864;30.464;2024-01-15T14:50:09;18.50;54.89
78366;HTU21D;67641;59.864;30.464;2024-01-15T14:52:38;18.50;54.64
78366;HTU21D;67641;59.864;30.464;2024-01-15T14:55:07;18.48;54.95
78366;HTU21D;67641;59.864;30.464;2024-01-15T14:57:35;18.47;55.02
78366;HTU21D;67641;59.864;30.464;2024-01-15T15:00:04;18.33;56.22
78366;HTU21D;67641;59.864;30.464;2024-01-15T15:02:36;18.27;57.35
78366;HTU21D;67641;59.864;30.464;2024-01-15T15:05:04;18.20;58.60